sensor_id;sensor_type;location;lat;lon;timestamp;P1;durP1;ratioP1;P2;durP2;ratioP2
1350;SDS011;669;50.206;9.998;2022-12-18T00:01:50;6.53;;;4.93;;
1350;SDS011;669;50.206;9.998;2022-12-18T00:04:20;9.02;;;5.32;;
1350;SDS011;669;50.206;9.998;2022-12-18T00:06:50;6.95;;;4.35;;
1350;SDS011;669;50.206;9.998;2022-12-18T00:09:18;11.52;;;6.50;;
1350;SDS011;669;50.206;9.998;2022-12-18T00:11:46;6.82;;;4.97;;
1350;SDS011;669;50.206;9.998;2022-12-18T00:14:14;9.27;;;5.22;;
1350;SDS011;669;50.206;9.998;2022-12-18T00:16:44;15.15;;;7.82;;
1350;SDS011;669;50.206;9.998;2022-12-18T00:19:13;20.38;;;5.72;;
1350;SDS011;669;50.206;9.998;2022-12-18T00:21:42;7.00;;;5.03;;
1350;SDS011;669;50.206;9.998;2022-12-18T00:24:11;6.55;;;4.43;;
1350;SDS011;669;50.206;9.998;2022-12-18T00:26:39;12.10;;;5.90;;
1350;SDS011;669;50.206;9.998;2022-12-18T00:29:07;17.55;;;7.32;;
1350;SDS011;669;50.206;9.998;2022-12-18T00:31:39;9.10;;;5.63;;
1350;SDS011;669;50.206;9.998;2022-12-18T00:34:11;7.53;;;6.18;;
1350;SDS011;669;50.206;9.998;2022-12-18T00:36:40;8.40;;;5.47;;
1350;SDS011;669;50.206;9.998;2022-12-18T00:39:09;10.52;;;6.20;;
1350;SDS011;669;50.206;9.998;2022-12-18T00:41:38;9.80;;;5.32;;
1350;SDS011;669;50.206;9.998;2022-12-18T00:44:23;5.32;;;4.80;;
1350;SDS011;669;50.206;9.998;2022-12-18T00:46:51;10.18;;;6.00;;
1350;SDS011;669;50.206;9.998;2022-12-18T00:49:20;5.85;;;4.35;;
1350;SDS011;669;50.206;9.998;2022-12-18T00:51:49;9.38;;;5.75;;
1350;SDS011;669;50.206;9.998;2022-12-18T00:54:17;10.93;;;5.47;;
1350;SDS011;669;50.206;9.998;2022-12-18T00:56:45;13.68;;;5.30;;
1350;SDS011;669;50.206;9.998;2022-12-18T00:59:15;13.55;;;6.68;;
1350;SDS011;669;50.206;9.998;2022-12-18T01:01:43;8.70;;;6.15;;
1350;SDS011;669;50.206;9.998;2022-12-18T01:04:12;8.75;;;5.63;;
1350;SDS011;669;50.206;9.998;2022-12-18T01:06:41;11.40;;;6.57;;
1350;SDS011;669;50.206;9.998;2022-12-18T01:09:10;21.42;;;6.97;;
1350;SDS011;669;50.206;9.998;2022-12-18T01:11:37;9.52;;;6.05;;
1350;SDS011;669;50.206;9.998;2022-12-18T01:14:05;9.05;;;5.75;;
1350;SDS011;669;50.206;9.998;2022-12-18T01:16:33;10.45;;;4.90;;
1350;SDS011;669;50.206;9.998;2022-12-18T01:19:01;9.57;;;6.05;;
1350;SDS011;669;50.206;9.998;2022-12-18T01:21:29;11.93;;;6.03;;
1350;SDS011;669;50.206;9.998;2022-12-18T01:23:58;10.32;;;5.40;;
1350;SDS011;669;50.206;9.998;2022-12-18T01:26:26;10.23;;;5.57;;
1350;SDS011;669;50.206;9.998;2022-12-18T01:28:56;15.10;;;6.15;;
1350;SDS011;669;50.206;9.998;2022-12-18T01:31:25;12.32;;;6.97;;
1350;SDS011;669;50.206;9.998;2022-12-18T01:33:54;15.35;;;7.10;;
1350;SDS011;669;50.206;9.998;2022-12-18T01:36:23;12.50;;;7.13;;
1350;SDS011;669;50.206;9.998;2022-12-18T01:38:52;11.88;;;6.88;;
1350;SDS011;669;50.206;9.998;2022-12-18T01:41:23;11.85;;;8.00;;
1350;SDS011;669;50.206;9.998;2022-12-18T01:43:53;11.30;;;6.93;;
1350;SDS011;669;50.206;9.998;2022-12-18T01:46:23;15.52;;;7.10;;
1350;SDS011;669;50.206;9.998;2022-12-18T01:48:53;12.30;;;6.97;;
1350;SDS011;669;50.206;9.998;2022-12-18T01:51:23;10.77;;;6.13;;
1350;SDS011;669;50.206;9.998;2022-12-18T01:53:53;11.07;;;6.30;;
1350;SDS011;669;50.206;9.998;2022-12-18T01:56:23;12.73;;;6.93;;
1350;SDS011;669;50.206;9.998;2022-12-18T01:58:52;9.90;;;6.07;;
1350;SDS011;669;50.206;9.998;2022-12-18T02:01:24;13.00;;;7.03;;
1350;SDS011;669;50.206;9.998;2022-12-18T02:03:52;12.27;;;6.30;;
1350;SDS011;669;50.206;9.998;2022-12-18T02:06:21;14.82;;;8.02;;
1350;SDS011;669;50.206;9.998;2022-12-18T02:08:58;11.30;;;5.93;;
1350;SDS011;669;50.206;9.998;2022-12-18T02:11:39;11.27;;;6.82;;
1350;SDS011;669;50.206;9.998;2022-12-18T02:14:18;16.50;;;7.80;;
1350;SDS011;669;50.206;9.998;2022-12-18T02:16:57;13.68;;;6.43;;
1350;SDS011;669;50.206;9.998;2022-12-18T02:19:37;16.10;;;6.65;;
1350;SDS011;669;50.206;9.998;2022-12-18T02:22:24;8.10;;;5.85;;
1350;SDS011;669;50.206;9.998;2022-12-18T02:25:00;7.07;;;5.28;;
1350;SDS011;669;50.206;9.998;2022-12-18T02:27:42;11.68;;;5.95;;
1350;SDS011;669;50.206;9.998;2022-12-18T02:30:12;9.70;;;6.13;;
1350;SDS011;669;50.206;9.998;2022-12-18T02:32:42;12.32;;;6.80;;
1350;SDS011;669;50.206;9.998;2022-12-18T02:35:14;12.45;;;7.10;;
1350;SDS011;669;50.206;9.998;2022-12-18T02:37:44;12.40;;;6.05;;
1350;SDS011;669;50.206;9.998;2022-12-18T02:40:14;18.27;;;8.95;;
1350;SDS011;669;50.206;9.998;2022-12-18T02:42:45;11.48;;;7.18;;
1350;SDS011;669;50.206;9.998;2022-12-18T02:45:13;17.50;;;8.07;;
1350;SDS011;669;50.206;9.998;2022-12-18T02:47:42;13.10;;;6.55;;
1350;SDS011;669;50.206;9.998;2022-12-18T02:50:14;11.70;;;6.25;;
1350;SDS011;669;50.206;9.998;2022-12-18T02:52:52;11.63;;;6.97;;
1350;SDS011;669;50.206;9.998;2022-12-18T02:55:29;12.95;;;7.05;;
1350;SDS011;669;50.206;9.998;2022-12-18T02:58:09;10.02;;;6.40;;
1350;SDS011;669;50.206;9.998;2022-12-18T03:00:42;14.55;;;7.22;;
1350;SDS011;669;50.206;9.998;2022-12-18T03:03:16;17.23;;;7.80;;
1350;SDS011;669;50.206;9.998;2022-12-18T03:05:51;10.68;;;6.05;;
1350;SDS011;669;50.206;9.998;2022-12-18T03:08:22;11.32;;;7.20;;
1350;SDS011;669;50.206;9.998;2022-12-18T03:10:54;16.58;;;7.20;;
1350;SDS011;669;50.206;9.998;2022-12-18T03:13:27;9.02;;;5.57;;
1350;SDS011;669;50.206;9.998;2022-12-18T03:15:58;12.35;;;7.40;;
1350;SDS011;669;50.206;9.998;2022-12-18T03:18:29;13.77;;;7.15;;
1350;SDS011;669;50.206;9.998;2022-12-18T03:21:03;18.02;;;7.82;;
1350;SDS011;669;50.206;9.998;2022-12-18T03:23:35;16.05;;;7.72;;
1350;SDS011;669;50.206;9.998;2022-12-18T03:26:09;11.88;;;7.13;;
1350;SDS011;669;50.206;9.998;2022-12-18T03:28:42;10.63;;;7.20;;
1350;SDS011;669;50.206;9.998;2022-12-18T03:31:13;11.38;;;7.00;;
1350;SDS011;669;50.206;9.998;2022-12-18T03:33:44;13.00;;;7.38;;
1350;SDS011;669;50.206;9.998;2022-12-18T03:36:14;13.15;;;7.47;;
1350;SDS011;669;50.206;9.998;2022-12-18T03:38:42;16.10;;;8.25;;
1350;SDS011;669;50.206;9.998;2022-12-18T03:41:11;13.40;;;7.45;;
1350;SDS011;669;50.206;9.998;2022-12-18T03:43:47;14.82;;;7.60;;
1350;SDS011;669;50.206;9.998;2022-12-18T03:46:21;15.43;;;8.18;;
1350;SDS011;669;50.206;9.998;2022-12-18T03:48:56;10.20;;;6.97;;
1350;SDS011;669;50.206;9.998;2022-12-18T03:51:29;22.00;;;9.57;;
1350;SDS011;669;50.206;9.998;2022-12-18T03:54:05;14.40;;;7.70;;
1350;SDS011;669;50.206;9.998;2022-12-18T03:56:36;16.15;;;9.02;;
1350;SDS011;669;50.206;9.998;2022-12-18T03:59:10;13.90;;;7.95;;
1350;SDS011;669;50.206;9.998;2022-12-18T04:01:42;10.52;;;7.45;;
1350;SDS011;669;50.206;9.998;2022-12-18T04:04:14;19.50;;;9.05;;
1350;SDS011;669;50.206;9.998;2022-12-18T04:06:43;16.02;;;8.43;;
1350;SDS011;669;50.206;9.998;2022-12-18T04:09:13;9.43;;;6.70;;
1350;SDS011;669;50.206;9.998;2022-12-18T04:11:41;14.55;;;7.10;;
1350;SDS011;669;50.206;9.998;2022-12-18T04:14:11;13.98;;;8.15;;
1350;SDS011;669;50.206;9.998;2022-12-18T04:16:43;15.23;;;9.50;;
1350;SDS011;669;50.206;9.998;2022-12-18T04:19:11;13.98;;;7.75;;
1350;SDS011;669;50.206;9.998;2022-12-18T04:21:39;17.75;;;8.52;;
1350;SDS011;669;50.206;9.998;2022-12-18T04:24:07;14.13;;;7.95;;
1350;SDS011;669;50.206;9.998;2022-12-18T04:26:35;13.52;;;8.15;;
1350;SDS011;669;50.206;9.998;2022-12-18T04:29:04;16.80;;;7.18;;
1350;SDS011;669;50.206;9.998;2022-12-18T04:31:33;12.73;;;8.05;;
1350;SDS011;669;50.206;9.998;2022-12-18T04:34:01;15.20;;;8.48;;
1350;SDS011;669;50.206;9.998;2022-12-18T04:36:30;15.07;;;9.05;;
1350;SDS011;669;50.206;9.998;2022-12-18T04:38:58;22.00;;;8.80;;
1350;SDS011;669;50.206;9.998;2022-12-18T04:41:25;16.83;;;9.00;;
1350;SDS011;669;50.206;9.998;2022-12-18T04:43:53;12.02;;;8.10;;
1350;SDS011;669;50.206;9.998;2022-12-18T04:46:21;10.95;;;8.18;;
1350;SDS011;669;50.206;9.998;2022-12-18T04:48:51;9.63;;;6.63;;
1350;SDS011;669;50.206;9.998;2022-12-18T04:51:18;18.17;;;8.23;;
1350;SDS011;669;50.206;9.998;2022-12-18T04:53:52;11.80;;;7.40;;
1350;SDS011;669;50.206;9.998;2022-12-18T04:56:20;12.43;;;7.22;;
1350;SDS011;669;50.206;9.998;2022-12-18T04:58:48;17.90;;;7.50;;
1350;SDS011;669;50.206;9.998;2022-12-18T05:01:17;19.52;;;7.38;;
1350;SDS011;669;50.206;9.998;2022-12-18T05:03:45;24.27;;;10.90;;
1350;SDS011;669;50.206;9.998;2022-12-18T05:06:14;15.90;;;6.90;;
1350;SDS011;669;50.206;9.998;2022-12-18T05:08:42;9.75;;;6.88;;
1350;SDS011;669;50.206;9.998;2022-12-18T05:11:12;15.55;;;8.18;;
1350;SDS011;669;50.206;9.998;2022-12-18T05:13:42;16.60;;;7.10;;
1350;SDS011;669;50.206;9.998;2022-12-18T05:16:11;17.02;;;9.43;;
1350;SDS011;669;50.206;9.998;2022-12-18T05:18:40;15.65;;;8.02;;
1350;SDS011;669;50.206;9.998;2022-12-18T05:21:08;16.02;;;8.02;;
1350;SDS011;669;50.206;9.998;2022-12-18T05:23:38;13.85;;;7.65;;
1350;SDS011;669;50.206;9.998;2022-12-18T05:26:06;9.45;;;6.65;;
1350;SDS011;669;50.206;9.998;2022-12-18T05:28:35;17.98;;;9.23;;
1350;SDS011;669;50.206;9.998;2022-12-18T05:31:03;15.07;;;8.20;;
1350;SDS011;669;50.206;9.998;2022-12-18T05:33:33;15.75;;;8.75;;
1350;SDS011;669;50.206;9.998;2022-12-18T05:36:02;12.88;;;7.00;;
1350;SDS011;669;50.206;9.998;2022-12-18T05:38:33;12.68;;;7.53;;
1350;SDS011;669;50.206;9.998;2022-12-18T05:41:03;15.93;;;8.55;;
1350;SDS011;669;50.206;9.998;2022-12-18T05:43:33;13.57;;;7.90;;
1350;SDS011;669;50.206;9.998;2022-12-18T05:46:05;11.07;;;6.72;;
1350;SDS011;669;50.206;9.998;2022-12-18T05:48:34;14.02;;;8.25;;
1350;SDS011;669;50.206;9.998;2022-12-18T05:51:03;11.63;;;8.52;;
1350;SDS011;669;50.206;9.998;2022-12-18T05:53:33;17.42;;;9.38;;
1350;SDS011;669;50.206;9.998;2022-12-18T05:56:05;19.77;;;10.38;;
1350;SDS011;669;50.206;9.998;2022-12-18T05:58:35;10.75;;;6.30;;
1350;SDS011;669;50.206;9.998;2022-12-18T06:01:07;16.25;;;9.10;;
1350;SDS011;669;50.206;9.998;2022-12-18T06:03:36;14.73;;;8.27;;
1350;SDS011;669;50.206;9.998;2022-12-18T06:06:12;20.10;;;8.90;;
1350;SDS011;669;50.206;9.998;2022-12-18T06:08:40;16.70;;;8.20;;
1350;SDS011;669;50.206;9.998;2022-12-18T06:11:15;15.63;;;9.40;;
1350;SDS011;669;50.206;9.998;2022-12-18T06:13:44;12.88;;;6.60;;
1350;SDS011;669;50.206;9.998;2022-12-18T06:16:13;10.20;;;7.00;;
1350;SDS011;669;50.206;9.998;2022-12-18T06:21:42;11.82;;;7.40;;
1350;SDS011;669;50.206;9.998;2022-12-18T06:24:10;10.18;;;7.05;;
1350;SDS011;669;50.206;9.998;2022-12-18T06:26:39;13.68;;;8.15;;
1350;SDS011;669;50.206;9.998;2022-12-18T06:29:07;15.82;;;8.75;;
1350;SDS011;669;50.206;9.998;2022-12-18T06:31:35;14.98;;;8.23;;
1350;SDS011;669;50.206;9.998;2022-12-18T06:34:04;16.58;;;8.35;;
1350;SDS011;669;50.206;9.998;2022-12-18T06:36:32;13.65;;;7.20;;
1350;SDS011;669;50.206;9.998;2022-12-18T06:39:00;11.75;;;7.45;;
1350;SDS011;669;50.206;9.998;2022-12-18T06:41:28;11.85;;;6.60;;
1350;SDS011;669;50.206;9.998;2022-12-18T06:43:57;17.10;;;8.40;;
1350;SDS011;669;50.206;9.998;2022-12-18T06:46:27;10.50;;;6.28;;
1350;SDS011;669;50.206;9.998;2022-12-18T06:48:55;16.17;;;7.53;;
1350;SDS011;669;50.206;9.998;2022-12-18T06:51:23;16.38;;;9.10;;
1350;SDS011;669;50.206;9.998;2022-12-18T06:53:51;15.93;;;8.40;;
1350;SDS011;669;50.206;9.998;2022-12-18T06:56:19;13.27;;;7.30;;
1350;SDS011;669;50.206;9.998;2022-12-18T06:58:47;15.98;;;7.75;;
1350;SDS011;669;50.206;9.998;2022-12-18T07:01:17;17.23;;;9.20;;
1350;SDS011;669;50.206;9.998;2022-12-18T07:03:45;16.90;;;7.95;;
1350;SDS011;669;50.206;9.998;2022-12-18T07:06:14;16.70;;;9.65;;
1350;SDS011;669;50.206;9.998;2022-12-18T07:08:43;19.08;;;9.82;;
1350;SDS011;669;50.206;9.998;2022-12-18T07:11:11;15.23;;;8.20;;
1350;SDS011;669;50.206;9.998;2022-12-18T07:13:39;12.60;;;7.15;;
1350;SDS011;669;50.206;9.998;2022-12-18T07:16:09;14.18;;;7.60;;
1350;SDS011;669;50.206;9.998;2022-12-18T07:18:47;14.13;;;6.95;;
1350;SDS011;669;50.206;9.998;2022-12-18T07:21:16;14.82;;;7.65;;
1350;SDS011;669;50.206;9.998;2022-12-18T07:23:45;10.98;;;6.05;;
1350;SDS011;669;50.206;9.998;2022-12-18T07:26:16;13.60;;;7.15;;
1350;SDS011;669;50.206;9.998;2022-12-18T07:28:46;14.68;;;8.38;;
1350;SDS011;669;50.206;9.998;2022-12-18T07:31:15;15.98;;;7.50;;
1350;SDS011;669;50.206;9.998;2022-12-18T07:33:44;10.25;;;6.35;;
1350;SDS011;669;50.206;9.998;2022-12-18T07:36:14;16.45;;;8.27;;
1350;SDS011;669;50.206;9.998;2022-12-18T07:38:42;15.80;;;7.05;;
1350;SDS011;669;50.206;9.998;2022-12-18T07:41:10;11.65;;;6.78;;
1350;SDS011;669;50.206;9.998;2022-12-18T07:43:40;7.88;;;6.57;;
1350;SDS011;669;50.206;9.998;2022-12-18T07:46:09;20.40;;;7.25;;
1350;SDS011;669;50.206;9.998;2022-12-18T07:48:40;14.25;;;6.95;;
1350;SDS011;669;50.206;9.998;2022-12-18T07:51:09;20.08;;;8.10;;
1350;SDS011;669;50.206;9.998;2022-12-18T07:53:41;15.75;;;7.35;;
1350;SDS011;669;50.206;9.998;2022-12-18T07:56:10;18.90;;;9.27;;
1350;SDS011;669;50.206;9.998;2022-12-18T07:58:56;18.05;;;8.65;;
1350;SDS011;669;50.206;9.998;2022-12-18T08:01:26;17.88;;;9.55;;
1350;SDS011;669;50.206;9.998;2022-12-18T08:03:54;19.70;;;8.93;;
1350;SDS011;669;50.206;9.998;2022-12-18T08:06:22;14.68;;;8.57;;
1350;SDS011;669;50.206;9.998;2022-12-18T08:08:52;18.58;;;8.73;;
1350;SDS011;669;50.206;9.998;2022-12-18T08:11:21;16.08;;;9.88;;
1350;SDS011;669;50.206;9.998;2022-12-18T08:13:50;20.75;;;11.85;;
1350;SDS011;669;50.206;9.998;2022-12-18T08:16:19;18.95;;;10.75;;
1350;SDS011;669;50.206;9.998;2022-12-18T08:18:48;24.60;;;11.50;;
1350;SDS011;669;50.206;9.998;2022-12-18T08:21:16;20.70;;;10.68;;
1350;SDS011;669;50.206;9.998;2022-12-18T08:23:49;22.85;;;11.57;;
1350;SDS011;669;50.206;9.998;2022-12-18T08:26:19;23.02;;;12.98;;
1350;SDS011;669;50.206;9.998;2022-12-18T08:28:48;22.17;;;14.27;;
1350;SDS011;669;50.206;9.998;2022-12-18T08:31:16;24.23;;;11.82;;
1350;SDS011;669;50.206;9.998;2022-12-18T08:33:47;23.27;;;11.93;;
1350;SDS011;669;50.206;9.998;2022-12-18T08:36:16;31.20;;;14.38;;
1350;SDS011;669;50.206;9.998;2022-12-18T08:38:44;25.55;;;13.00;;
1350;SDS011;669;50.206;9.998;2022-12-18T08:41:13;24.80;;;13.75;;
1350;SDS011;669;50.206;9.998;2022-12-18T08:43:43;27.08;;;13.10;;
1350;SDS011;669;50.206;9.998;2022-12-18T08:46:31;19.42;;;12.20;;
1350;SDS011;669;50.206;9.998;2022-12-18T08:49:01;23.80;;;12.55;;
1350;SDS011;669;50.206;9.998;2022-12-18T08:51:30;26.23;;;15.15;;
1350;SDS011;669;50.206;9.998;2022-12-18T08:53:58;24.10;;;13.55;;
1350;SDS011;669;50.206;9.998;2022-12-18T08:56:26;23.40;;;11.65;;
1350;SDS011;669;50.206;9.998;2022-12-18T08:58:55;29.63;;;14.77;;
1350;SDS011;669;50.206;9.998;2022-12-18T09:01:24;30.08;;;13.77;;
1350;SDS011;669;50.206;9.998;2022-12-18T09:03:52;26.25;;;13.15;;
1350;SDS011;669;50.206;9.998;2022-12-18T09:06:20;25.65;;;12.00;;
1350;SDS011;669;50.206;9.998;2022-12-18T09:08:50;27.60;;;12.93;;
1350;SDS011;669;50.206;9.998;2022-12-18T09:11:19;21.92;;;12.73;;
1350;SDS011;669;50.206;9.998;2022-12-18T09:13:48;25.50;;;14.57;;
1350;SDS011;669;50.206;9.998;2022-12-18T09:16:17;26.35;;;14.38;;
1350;SDS011;669;50.206;9.998;2022-12-18T09:18:46;24.83;;;13.90;;
1350;SDS011;669;50.206;9.998;2022-12-18T09:21:15;28.13;;;14.70;;
1350;SDS011;669;50.206;9.998;2022-12-18T09:23:48;25.08;;;12.35;;
1350;SDS011;669;50.206;9.998;2022-12-18T09:26:16;25.00;;;13.95;;
1350;SDS011;669;50.206;9.998;2022-12-18T09:28:44;24.25;;;14.02;;
1350;SDS011;669;50.206;9.998;2022-12-18T09:31:14;28.63;;;14.30;;
1350;SDS011;669;50.206;9.998;2022-12-18T09:33:43;29.73;;;15.18;;
1350;SDS011;669;50.206;9.998;2022-12-18T09:36:12;24.90;;;13.23;;
1350;SDS011;669;50.206;9.998;2022-12-18T09:38:41;28.20;;;14.65;;
1350;SDS011;669;50.206;9.998;2022-12-18T09:41:15;25.80;;;14.63;;
1350;SDS011;669;50.206;9.998;2022-12-18T09:43:53;31.15;;;12.95;;
1350;SDS011;669;50.206;9.998;2022-12-18T09:46:25;25.58;;;13.23;;
1350;SDS011;669;50.206;9.998;2022-12-18T09:48:58;27.52;;;12.50;;
1350;SDS011;669;50.206;9.998;2022-12-18T09:51:36;32.63;;;13.30;;
1350;SDS011;669;50.206;9.998;2022-12-18T09:54:11;27.10;;;13.10;;
1350;SDS011;669;50.206;9.998;2022-12-18T09:56:43;26.90;;;13.02;;
1350;SDS011;669;50.206;9.998;2022-12-18T09:59:15;30.52;;;14.77;;
1350;SDS011;669;50.206;9.998;2022-12-18T10:01:49;31.38;;;14.85;;
1350;SDS011;669;50.206;9.998;2022-12-18T10:04:19;30.52;;;15.43;;
1350;SDS011;669;50.206;9.998;2022-12-18T10:06:49;29.73;;;14.27;;
1350;SDS011;669;50.206;9.998;2022-12-18T10:09:24;32.88;;;14.68;;
1350;SDS011;669;50.206;9.998;2022-12-18T10:12:00;29.23;;;13.40;;
1350;SDS011;669;50.206;9.998;2022-12-18T10:14:36;27.73;;;13.73;;
1350;SDS011;669;50.206;9.998;2022-12-18T10:17:13;26.42;;;12.50;;
1350;SDS011;669;50.206;9.998;2022-12-18T10:19:49;30.70;;;13.77;;
1350;SDS011;669;50.206;9.998;2022-12-18T10:22:24;31.60;;;13.90;;
1350;SDS011;669;50.206;9.998;2022-12-18T10:25:02;27.60;;;14.25;;
1350;SDS011;669;50.206;9.998;2022-12-18T10:27:33;26.98;;;14.02;;
1350;SDS011;669;50.206;9.998;2022-12-18T10:30:04;35.67;;;15.95;;
1350;SDS011;669;50.206;9.998;2022-12-18T10:32:40;21.60;;;12.02;;
1350;SDS011;669;50.206;9.998;2022-12-18T10:35:11;32.78;;;15.63;;
1350;SDS011;669;50.206;9.998;2022-12-18T10:38:05;26.90;;;13.93;;
1350;SDS011;669;50.206;9.998;2022-12-18T10:40:47;27.17;;;13.88;;
1350;SDS011;669;50.206;9.998;2022-12-18T10:43:19;26.23;;;13.73;;
1350;SDS011;669;50.206;9.998;2022-12-18T10:45:57;27.08;;;13.27;;
1350;SDS011;669;50.206;9.998;2022-12-18T10:48:32;35.03;;;14.18;;
1350;SDS011;669;50.206;9.998;2022-12-18T10:51:03;37.63;;;17.63;;
1350;SDS011;669;50.206;9.998;2022-12-18T10:53:39;33.00;;;16.67;;
1350;SDS011;669;50.206;9.998;2022-12-18T10:56:19;33.40;;;17.90;;
1350;SDS011;669;50.206;9.998;2022-12-18T10:58:55;33.78;;;16.20;;
1350;SDS011;669;50.206;9.998;2022-12-18T11:01:24;34.80;;;14.15;;
1350;SDS011;669;50.206;9.998;2022-12-18T11:04:04;33.08;;;15.13;;
1350;SDS011;669;50.206;9.998;2022-12-18T11:06:37;29.25;;;15.45;;
1350;SDS011;669;50.206;9.998;2022-12-18T11:09:21;31.50;;;16.65;;
1350;SDS011;669;50.206;9.998;2022-12-18T11:11:50;36.28;;;16.10;;
1350;SDS011;669;50.206;9.998;2022-12-18T11:14:21;30.25;;;15.77;;
1350;SDS011;669;50.206;9.998;2022-12-18T11:16:51;34.28;;;16.30;;
1350;SDS011;669;50.206;9.998;2022-12-18T11:19:40;32.90;;;15.18;;
1350;SDS011;669;50.206;9.998;2022-12-18T11:22:19;41.85;;;16.55;;
1350;SDS011;669;50.206;9.998;2022-12-18T11:24:55;37.55;;;16.48;;
1350;SDS011;669;50.206;9.998;2022-12-18T11:27:48;28.63;;;15.30;;
1350;SDS011;669;50.206;9.998;2022-12-18T11:30:22;30.17;;;15.27;;
1350;SDS011;669;50.206;9.998;2022-12-18T11:32:52;28.60;;;15.00;;
1350;SDS011;669;50.206;9.998;2022-12-18T11:35:28;30.83;;;14.68;;
1350;SDS011;669;50.206;9.998;2022-12-18T11:38:04;35.47;;;16.85;;
1350;SDS011;669;50.206;9.998;2022-12-18T11:40:40;30.67;;;14.93;;
1350;SDS011;669;50.206;9.998;2022-12-18T11:43:13;33.13;;;15.50;;
1350;SDS011;669;50.206;9.998;2022-12-18T11:45:47;34.13;;;15.95;;
1350;SDS011;669;50.206;9.998;2022-12-18T11:48:21;32.08;;;15.35;;
1350;SDS011;669;50.206;9.998;2022-12-18T11:50:52;31.60;;;14.38;;
1350;SDS011;669;50.206;9.998;2022-12-18T11:53:24;28.90;;;14.60;;
1350;SDS011;669;50.206;9.998;2022-12-18T11:56:00;36.97;;;16.58;;
1350;SDS011;669;50.206;9.998;2022-12-18T11:58:39;31.38;;;16.38;;
1350;SDS011;669;50.206;9.998;2022-12-18T12:01:14;33.22;;;16.55;;
1350;SDS011;669;50.206;9.998;2022-12-18T12:03:53;34.35;;;17.55;;
1350;SDS011;669;50.206;9.998;2022-12-18T12:06:32;29.73;;;14.07;;
1350;SDS011;669;50.206;9.998;2022-12-18T12:09:10;26.75;;;15.05;;
1350;SDS011;669;50.206;9.998;2022-12-18T12:11:49;33.67;;;16.08;;
1350;SDS011;669;50.206;9.998;2022-12-18T12:14:29;37.13;;;18.55;;
1350;SDS011;669;50.206;9.998;2022-12-18T12:17:09;37.97;;;15.70;;
1350;SDS011;669;50.206;9.998;2022-12-18T12:19:44;37.72;;;16.75;;
1350;SDS011;669;50.206;9.998;2022-12-18T12:22:20;29.33;;;16.10;;
1350;SDS011;669;50.206;9.998;2022-12-18T12:25:01;41.92;;;18.42;;
1350;SDS011;669;50.206;9.998;2022-12-18T12:27:44;38.00;;;17.77;;
1350;SDS011;669;50.206;9.998;2022-12-18T12:30:20;32.13;;;14.57;;
1350;SDS011;669;50.206;9.998;2022-12-18T12:32:52;37.20;;;16.48;;
1350;SDS011;669;50.206;9.998;2022-12-18T12:35:32;27.67;;;14.10;;
1350;SDS011;669;50.206;9.998;2022-12-18T12:38:10;40.40;;;16.85;;
1350;SDS011;669;50.206;9.998;2022-12-18T12:40:44;28.85;;;16.98;;
1350;SDS011;669;50.206;9.998;2022-12-18T12:43:29;38.92;;;17.33;;
1350;SDS011;669;50.206;9.998;2022-12-18T12:46:02;36.65;;;14.77;;
1350;SDS011;669;50.206;9.998;2022-12-18T12:48:35;39.63;;;17.15;;
1350;SDS011;669;50.206;9.998;2022-12-18T12:51:12;37.75;;;17.13;;
1350;SDS011;669;50.206;9.998;2022-12-18T12:53:43;34.40;;;16.38;;
1350;SDS011;669;50.206;9.998;2022-12-18T12:56:14;29.15;;;16.85;;
1350;SDS011;669;50.206;9.998;2022-12-18T12:58:52;34.83;;;15.63;;
1350;SDS011;669;50.206;9.998;2022-12-18T13:01:28;31.33;;;15.43;;
1350;SDS011;669;50.206;9.998;2022-12-18T13:04:08;31.63;;;15.77;;
1350;SDS011;669;50.206;9.998;2022-12-18T13:06:47;32.53;;;15.80;;
1350;SDS011;669;50.206;9.998;2022-12-18T13:09:21;33.07;;;18.60;;
1350;SDS011;669;50.206;9.998;2022-12-18T13:11:51;28.20;;;13.50;;
1350;SDS011;669;50.206;9.998;2022-12-18T13:14:37;33.88;;;15.90;;
1350;SDS011;669;50.206;9.998;2022-12-18T13:17:27;34.93;;;16.93;;
1350;SDS011;669;50.206;9.998;2022-12-18T13:20:07;35.53;;;15.37;;
1350;SDS011;669;50.206;9.998;2022-12-18T13:22:43;31.13;;;16.23;;
1350;SDS011;669;50.206;9.998;2022-12-18T13:25:29;35.00;;;16.35;;
1350;SDS011;669;50.206;9.998;2022-12-18T13:28:08;32.40;;;15.20;;
1350;SDS011;669;50.206;9.998;2022-12-18T13:30:46;31.27;;;17.70;;
1350;SDS011;669;50.206;9.998;2022-12-18T13:36:37;33.65;;;16.17;;
1350;SDS011;669;50.206;9.998;2022-12-18T13:39:09;31.85;;;17.10;;
1350;SDS011;669;50.206;9.998;2022-12-18T13:45:36;30.33;;;15.63;;
1350;SDS011;669;50.206;9.998;2022-12-18T13:48:14;28.63;;;16.67;;
1350;SDS011;669;50.206;9.998;2022-12-18T13:50:49;33.85;;;15.32;;
1350;SDS011;669;50.206;9.998;2022-12-18T13:53:21;29.10;;;13.80;;
1350;SDS011;669;50.206;9.998;2022-12-18T13:55:52;32.97;;;16.73;;
1350;SDS011;669;50.206;9.998;2022-12-18T13:58:21;29.95;;;14.20;;
1350;SDS011;669;50.206;9.998;2022-12-18T14:00:51;30.83;;;15.95;;
1350;SDS011;669;50.206;9.998;2022-12-18T14:03:20;45.28;;;18.38;;
1350;SDS011;669;50.206;9.998;2022-12-18T14:05:53;42.10;;;16.40;;
1350;SDS011;669;50.206;9.998;2022-12-18T14:08:24;29.63;;;16.13;;
1350;SDS011;669;50.206;9.998;2022-12-18T14:10:59;32.88;;;15.40;;
1350;SDS011;669;50.206;9.998;2022-12-18T14:13:30;41.07;;;20.47;;
1350;SDS011;669;50.206;9.998;2022-12-18T14:16:03;36.03;;;15.48;;
1350;SDS011;669;50.206;9.998;2022-12-18T14:18:35;34.70;;;18.38;;
1350;SDS011;669;50.206;9.998;2022-12-18T14:21:15;39.05;;;17.40;;
1350;SDS011;669;50.206;9.998;2022-12-18T14:23:47;30.20;;;15.77;;
1350;SDS011;669;50.206;9.998;2022-12-18T14:26:22;31.38;;;16.55;;
1350;SDS011;669;50.206;9.998;2022-12-18T14:28:53;31.30;;;16.83;;
1350;SDS011;669;50.206;9.998;2022-12-18T14:31:23;34.40;;;17.15;;
1350;SDS011;669;50.206;9.998;2022-12-18T14:33:52;30.00;;;16.35;;
1350;SDS011;669;50.206;9.998;2022-12-18T14:36:22;28.43;;;17.37;;
1350;SDS011;669;50.206;9.998;2022-12-18T14:38:52;33.40;;;17.15;;
1350;SDS011;669;50.206;9.998;2022-12-18T14:41:21;28.97;;;15.90;;
1350;SDS011;669;50.206;9.998;2022-12-18T14:43:51;42.53;;;17.13;;
1350;SDS011;669;50.206;9.998;2022-12-18T14:46:32;29.50;;;15.67;;
1350;SDS011;669;50.206;9.998;2022-12-18T14:49:03;37.20;;;17.37;;
1350;SDS011;669;50.206;9.998;2022-12-18T14:51:46;37.83;;;17.37;;
1350;SDS011;669;50.206;9.998;2022-12-18T14:54:16;30.23;;;16.17;;
1350;SDS011;669;50.206;9.998;2022-12-18T14:56:46;31.77;;;15.93;;
1350;SDS011;669;50.206;9.998;2022-12-18T14:59:16;30.33;;;16.40;;
1350;SDS011;669;50.206;9.998;2022-12-18T15:01:54;32.57;;;15.90;;
1350;SDS011;669;50.206;9.998;2022-12-18T15:04:27;32.08;;;16.25;;
1350;SDS011;669;50.206;9.998;2022-12-18T15:07:12;35.95;;;15.68;;
1350;SDS011;669;50.206;9.998;2022-12-18T15:09:42;31.60;;;15.93;;
1350;SDS011;669;50.206;9.998;2022-12-18T15:12:19;25.25;;;14.80;;
1350;SDS011;669;50.206;9.998;2022-12-18T15:14:53;31.38;;;16.33;;
1350;SDS011;669;50.206;9.998;2022-12-18T15:17:22;30.50;;;15.43;;
1350;SDS011;669;50.206;9.998;2022-12-18T15:19:52;30.33;;;14.65;;
1350;SDS011;669;50.206;9.998;2022-12-18T15:22:26;28.42;;;15.15;;
1350;SDS011;669;50.206;9.998;2022-12-18T15:24:56;32.33;;;13.70;;
1350;SDS011;669;50.206;9.998;2022-12-18T15:27:26;29.50;;;15.43;;
1350;SDS011;669;50.206;9.998;2022-12-18T15:30:11;28.90;;;14.75;;
1350;SDS011;669;50.206;9.998;2022-12-18T15:32:49;28.73;;;13.40;;
1350;SDS011;669;50.206;9.998;2022-12-18T15:35:19;26.05;;;14.95;;
1350;SDS011;669;50.206;9.998;2022-12-18T15:37:48;29.95;;;14.68;;
1350;SDS011;669;50.206;9.998;2022-12-18T15:40:17;19.98;;;13.05;;
1350;SDS011;669;50.206;9.998;2022-12-18T15:42:46;27.40;;;14.60;;
1350;SDS011;669;50.206;9.998;2022-12-18T15:45:33;19.93;;;11.97;;
1350;SDS011;669;50.206;9.998;2022-12-18T15:48:04;20.75;;;12.15;;
1350;SDS011;669;50.206;9.998;2022-12-18T15:50:41;22.58;;;11.50;;